Time;durP1;ratioP1;P1;durP2;ratioP2;P2;SDS_P1;SDS_P2;PMS_P1;PMS_P2;Temp;Humidity;BMP_temperature;BMP_pressure;BME280_temperature;BME280_humidity;BME280_pressure;Samples;Min_cycle;Max_cycle;Signal;HPM_P1;HPM_P2
2021/05/27 00:01:55;;;;;;;3.80;3.47;;;;;;;10.56;76.64;100223.38;5073761;28;20267;-76
2021/05/27 00:04:21;;;;;;;4.20;3.80;;;;;;;10.55;76.50;100218.16;5073900;28;20208;-77
2021/05/27 00:06:47;;;;;;;3.70;3.40;;;;;;;10.53;76.95;100222.72;5073707;28;20608;-76
2021/05/27 00:09:14;;;;;;;3.80;3.40;;;;;;;10.52;76.80;100219.22;5073697;28;20207;-76
2021/05/27 00:11:40;;;;;;;3.03;2.83;;;;;;;10.52;77.02;100237.84;5073187;28;20229;-76
2021/05/27 00:14:06;;;;;;;3.30;3.00;;;;;;;10.51;76.55;100233.47;5073259;28;20204;-76
2021/05/27 00:16:32;;;;;;;3.90;3.60;;;;;;;10.50;76.91;100226.44;5073648;28;20205;-76
2021/05/27 00:18:58;;;;;;;3.07;2.83;;;;;;;10.50;76.94;100237.09;5073542;28;20231;-76
2021/05/27 00:21:25;;;;;;;3.27;3.07;;;;;;;10.52;76.67;100234.31;5073331;28;20615;-76
2021/05/27 00:23:51;;;;;;;3.23;2.80;;;;;;;10.52;77.13;100231.66;5073273;28;20213;-76
2021/05/27 00:26:18;;;;;;;3.83;3.10;;;;;;;10.50;76.53;100226.44;5085102;22;20232;-64
2021/05/27 00:28:44;;;;;;;3.37;3.03;;;;;;;10.50;76.60;100244.22;5066073;28;20200;-62
2021/05/27 00:31:10;;;;;;;3.77;3.10;;;;;;;10.49;76.52;100237.19;5063398;28;20706;-64
2021/05/27 00:33:36;;;;;;;4.27;3.40;;;;;;;10.49;77.15;100230.06;5069230;28;20208;-65
2021/05/27 00:36:02;;;;;;;3.20;2.90;;;;;;;10.48;77.21;100239.00;5064306;28;20231;-64
2021/05/27 00:38:29;;;;;;;2.83;2.63;;;;;;;10.47;77.24;100241.78;5070526;28;20205;-65
2021/05/27 00:40:55;;;;;;;3.37;2.70;;;;;;;10.46;76.93;100246.25;5070149;28;20201;-64
2021/05/27 00:43:22;;;;;;;2.83;2.43;;;;;;;10.46;77.18;100240.06;5070454;28;20285;-64
2021/05/27 00:45:48;;;;;;;3.13;2.90;;;;;;;10.43;77.03;100238.47;5070019;28;20208;-64
2021/05/27 00:50:54;;;;;;;3.07;2.57;;;;;;;10.40;76.90;100236.00;5062715;28;20674;-64
2021/05/27 00:53:20;;;;;;;2.80;2.60;;;;;;;10.39;77.28;100248.47;5068394;28;20204;-64
2021/05/27 00:55:46;;;;;;;2.70;2.10;;;;;;;10.39;77.38;100243.13;5069991;28;20221;-64
2021/05/27 00:58:14;;;;;;;2.90;2.03;;;;;;;10.39;77.22;100248.47;5069827;28;20216;-64
2021/05/27 01:00:41;;;;;;;2.33;2.13;;;;;;;10.40;77.01;100238.66;5070833;28;20201;-65
2021/05/27 01:03:07;;;;;;;2.73;2.47;;;;;;;10.39;77.36;100240.47;5069102;28;20200;-64
2021/05/27 01:05:35;;;;;;;2.67;2.13;;;;;;;10.40;77.49;100246.66;5070267;28;20236;-64
2021/05/27 01:08:01;;;;;;;2.00;1.90;;;;;;;10.39;76.84;100245.81;5069822;28;20208;-64
2021/05/27 01:10:28;;;;;;;2.17;1.80;;;;;;;10.39;76.55;100242.31;5070258;28;20200;-64
2021/05/27 01:12:54;;;;;;;2.07;1.87;;;;;;;10.38;76.45;100249.47;5068507;28;20497;-64
2021/05/27 01:15:27;;;;;;;2.17;1.83;;;;;;;10.36;76.31;100251.38;5065792;28;20682;-64
2021/05/27 01:17:54;;;;;;;1.83;1.70;;;;;;;10.36;76.85;100255.84;5068682;28;20205;-64
2021/05/27 01:20:21;;;;;;;2.07;1.90;;;;;;;10.36;76.74;100263.81;5065674;28;20216;-64
2021/05/27 01:22:47;;;;;;;3.20;2.00;;;;;;;10.36;76.61;100264.69;5062088;28;20221;-65
2021/05/27 01:25:15;;;;;;;2.40;2.00;;;;;;;10.37;76.27;100266.38;5068273;28;20201;-64
2021/05/27 01:27:41;;;;;;;2.80;1.90;;;;;;;10.36;76.80;100267.34;5069786;28;20597;-64
2021/05/27 01:30:09;;;;;;;2.27;2.07;;;;;;;10.36;76.56;100270.00;5060984;28;20213;-64
2021/05/27 01:32:36;;;;;;;2.10;1.90;;;;;;;10.37;76.40;100270.84;5068891;28;20224;-66
2021/05/27 01:35:05;;;;;;;2.73;1.97;;;;;;;10.37;76.33;100271.72;5068550;28;20217;-63
2021/05/27 01:37:31;;;;;;;3.07;1.83;;;;;;;10.39;76.59;100264.44;5062110;28;20216;-64
2021/05/27 01:39:58;;;;;;;3.80;2.17;;;;;;;10.40;76.46;100262.63;5058047;28;20232;-64
2021/05/27 01:44:51;;;;;;;3.57;2.40;;;;;;;10.40;76.52;100268.81;5080297;22;20691;-80
2021/05/27 01:47:17;;;;;;;3.57;2.20;;;;;;;10.40;76.14;100267.97;5068763;28;20233;-79
2021/05/27 01:49:43;;;;;;;2.40;2.23;;;;;;;10.40;76.81;100258.16;5077406;28;20246;-80
2021/05/27 01:52:10;;;;;;;3.50;2.70;;;;;;;10.39;76.27;100267.09;5077254;28;20201;-82
2021/05/27 01:54:37;;;;;;;3.13;2.83;;;;;;;10.40;76.52;100267.97;5075969;28;20231;-83
2021/05/27 01:57:05;;;;;;;3.30;3.00;;;;;;;10.39;76.27;100272.44;5073376;28;20250;-83
2021/05/27 01:59:31;;;;;;;3.80;3.00;;;;;;;10.39;76.36;100274.25;5071494;28;20215;-83
2021/05/27 02:01:57;;;;;;;3.57;3.10;;;;;;;10.38;76.56;100276.06;5067745;28;20259;-81
2021/05/27 02:04:23;;;;;;;3.77;3.10;;;;;;;10.39;76.50;100267.09;5067449;28;20590;-79
2021/05/27 02:06:49;;;;;;;3.30;3.00;;;;;;;10.40;76.58;100271.47;5063437;28;20586;-81
2021/05/27 02:09:15;;;;;;;3.13;2.83;;;;;;;10.40;76.92;100268.81;5074481;28;20767;-80
2021/05/27 02:11:43;;;;;;;4.13;2.83;;;;;;;10.40;76.52;100263.47;5059243;28;20212;-80
2021/05/27 02:14:13;;;;;;;3.47;2.93;;;;;;;10.40;77.21;100268.81;5063136;28;20198;-80
2021/05/27 02:16:40;;;;;;;3.20;2.90;;;;;;;10.39;76.95;100269.75;5067314;28;20226;-80
2021/05/27 02:19:07;;;;;;;2.80;2.60;;;;;;;10.40;76.96;100270.63;5063017;28;20296;-80
2021/05/27 02:21:34;;;;;;;3.00;2.50;;;;;;;10.40;76.75;100270.63;5065587;28;20217;-79
2021/05/27 02:24:01;;;;;;;3.20;2.90;;;;;;;10.43;77.28;100278.41;5069338;28;20707;-80
2021/05/27 02:26:29;;;;;;;3.30;3.00;;;;;;;10.44;77.09;100275.63;5068004;28;20307;-81
2021/05/27 02:28:55;;;;;;;3.27;2.97;;;;;;;10.46;77.57;100272.88;5081120;28;20197;-81
2021/05/27 02:31:24;;;;;;;3.37;3.07;;;;;;;10.48;77.16;100264.78;5076586;28;20205;-81
2021/05/27 02:33:51;;;;;;;4.07;2.90;;;;;;;10.47;77.12;100279.03;5084336;28;20624;-79
2021/05/27 02:36:18;;;;;;;3.30;2.80;;;;;;;10.46;77.02;100277.34;5075834;28;20266;-81
2021/05/27 02:38:44;;;;;;;3.57;2.83;;;;;;;10.47;77.82;100268.41;5075280;28;20224;-80
2021/05/27 02:41:10;;;;;;;2.40;2.20;;;;;;;10.45;77.52;100279.16;5067403;28;20239;-80
2021/05/27 02:43:36;;;;;;;3.00;2.50;;;;;;;10.46;77.60;100277.34;5071195;28;20237;-80
2021/05/27 02:46:03;;;;;;;2.40;2.20;;;;;;;10.43;77.28;100279.25;5071419;28;20786;-79
2021/05/27 02:48:30;;;;;;;4.53;2.40;;;;;;;10.43;78.04;100286.38;5070023;28;20752;-79
2021/05/27 02:50:57;;;;;;;3.07;1.93;;;;;;;10.42;77.70;100274.88;5069428;28;20208;-80
2021/05/27 02:53:24;;;;;;;2.20;2.10;;;;;;;10.42;77.56;100280.22;5067440;28;20639;-79
2021/05/27 02:55:50;;;;;;;2.13;1.60;;;;;;;10.42;77.74;100282.88;5072358;28;20228;-78
2021/05/27 02:58:16;;;;;;;2.00;1.70;;;;;;;10.41;77.89;100281.16;5083804;28;20204;-79
2021/05/27 03:00:42;;;;;;;2.63;1.40;;;;;;;10.41;77.23;100285.63;5074646;28;20209;-79
2021/05/27 03:03:08;;;;;;;1.97;1.40;;;;;;;10.40;77.55;100273.28;5067097;28;20372;-79
2021/05/27 03:05:35;;;;;;;2.20;1.70;;;;;;;10.40;76.99;100289.25;5075896;28;20219;-81
2021/05/27 03:08:01;;;;;;;3.13;1.63;;;;;;;10.39;77.45;100288.41;5071046;28;20682;-82
2021/05/27 03:10:27;;;;;;;1.33;1.23;;;;;;;10.39;77.12;100280.41;5069612;28;20700;-82
2021/05/27 03:12:54;;;;;;;1.40;1.30;;;;;;;10.37;76.85;100277.03;5076373;28;20292;-82
2021/05/27 03:15:20;;;;;;;1.23;1.13;;;;;;;10.37;77.05;100289.50;5079052;28;20239;-82
2021/05/27 03:17:46;;;;;;;1.23;1.13;;;;;;;10.37;76.69;100290.34;5073270;28;20227;-81
2021/05/27 03:20:13;;;;;;;1.23;1.13;;;;;;;10.36;76.94;100282.47;5070736;28;20206;-83
2021/05/27 03:22:40;;;;;;;2.03;1.27;;;;;;;10.36;76.65;100285.13;5082175;28;20781;-82
2021/05/27 03:25:07;;;;;;;1.10;1.00;;;;;;;10.35;76.60;100291.41;5068106;28;20643;-81
2021/05/27 03:27:34;;;;;;;1.50;1.10;;;;;;;10.33;76.76;100291.50;5078802;28;20221;-82
2021/05/27 03:30:00;;;;;;;1.20;1.10;;;;;;;10.33;76.32;100282.66;5061580;28;21038;-80
2021/05/27 03:32:26;;;;;;;1.40;0.80;;;;;;;10.34;76.23;100290.53;5080130;28;20676;-81
2021/05/27 03:34:52;;;;;;;0.80;0.80;;;;;;;10.34;75.92;100295.00;5075349;28;20625;-81
2021/05/27 03:37:18;;;;;;;0.97;0.60;;;;;;;10.33;76.03;100291.50;5068108;28;20255;-81
2021/05/27 03:42:25;;;;;;;1.53;0.77;;;;;;;10.30;76.02;100294.38;5066317;28;20209;-81
2021/05/27 03:44:51;;;;;;;1.13;0.60;;;;;;;10.28;76.08;100301.59;5068109;28;20339;-81
2021/05/27 03:47:17;;;;;;;0.60;0.50;;;;;;;10.27;75.62;100309.69;5075434;28;20225;-80
2021/05/27 03:49:43;;;;;;;1.23;0.47;;;;;;;10.26;75.46;100311.50;5079254;28;20205;-80
2021/05/27 03:52:10;;;;;;;0.57;0.57;;;;;;;10.26;75.46;100306.16;5076132;28;20201;-82
2021/05/27 03:54:36;;;;;;;0.60;0.40;;;;;;;10.23;75.56;100306.38;5079878;28;20291;-80
2021/05/27 03:57:03;;;;;;;0.43;0.43;;;;;;;10.23;75.66;100303.72;5073707;28;20706;-81
2021/05/27 04:02:13;;;;;;;0.30;0.30;;;;;;;10.21;74.85;100316.25;5072654;28;20315;-80
2021/05/27 04:07:25;;;;;;;0.30;0.30;;;;;;;10.16;75.15;100310.38;5080684;28;20242;-79
2021/05/27 04:09:51;;;;;;;0.40;0.40;;;;;;;10.16;75.09;100306.88;5078690;28;20198;-79
2021/05/27 04:15:25;;;;;;;0.40;0.40;;;;;;;10.11;75.01;100301.84;5074560;28;20221;-81
2021/05/27 04:17:59;;;;;;;0.20;0.20;;;;;;;10.11;74.32;100317.81;5073371;28;20256;-83
2021/05/27 04:20:27;;;;;;;0.30;0.30;;;;;;;10.11;74.59;100315.16;5063263;28;20314;-82
2021/05/27 04:22:54;;;;;;;0.67;0.50;;;;;;;10.11;75.19;100317.81;5069529;28;20206;-81
2021/05/27 04:25:21;;;;;;;0.50;0.43;;;;;;;10.13;74.37;100320.38;5063686;28;20203;-81
2021/05/27 04:27:48;;;;;;;0.37;0.30;;;;;;;10.13;74.80;100323.88;5072563;28;20786;-82
2021/05/27 04:30:17;;;;;;;0.40;0.40;;;;;;;10.15;75.04;100337.09;5062860;28;20227;-82
2021/05/27 04:32:56;;;;;;;0.53;0.40;;;;;;;10.16;74.88;100336.13;5076293;28;20262;-80
2021/05/27 04:35:28;;;;;;;0.50;0.30;;;;;;;10.16;75.31;100339.66;5073708;28;20678;-81
2021/05/27 04:37:57;;;;;;;0.40;0.40;;;;;;;10.16;74.90;100337.00;5078822;28;20274;-82
2021/05/27 04:40:23;;;;;;;0.60;0.57;;;;;;;10.18;75.68;100336.91;5070025;28;20293;-78
2021/05/27 04:42:51;;;;;;;0.57;0.40;;;;;;;10.18;74.91;100345.72;5070927;28;20205;-80
2021/05/27 04:45:20;;;;;;;0.50;0.50;;;;;;;10.20;75.45;100341.19;5068994;28;20204;-82
2021/05/27 04:47:46;;;;;;;0.40;0.40;;;;;;;10.21;75.63;100337.56;5085548;28;20288;-81
2021/05/27 04:50:13;;;;;;;0.60;0.60;;;;;;;10.23;76.06;100337.44;5074641;28;20232;-81
2021/05/27 04:52:40;;;;;;;0.63;0.63;;;;;;;10.24;75.67;100342.66;5065038;28;20224;-79
2021/05/27 04:55:08;;;;;;;0.60;0.60;;;;;;;10.24;75.80;100342.66;5076545;28;20249;-80
2021/05/27 04:57:34;;;;;;;1.20;0.50;;;;;;;10.26;76.07;100340.75;5078167;28;20286;-79
2021/05/27 05:00:01;;;;;;;1.00;0.50;;;;;;;10.28;75.97;100338.00;5078333;28;20201;-81
2021/05/27 05:02:27;;;;;;;0.57;0.50;;;;;;;10.31;76.64;100345.78;5074216;28;20782;-81
2021/05/27 05:04:53;;;;;;;0.80;0.60;;;;;;;10.34;76.44;100341.13;5071563;28;20203;-81
2021/05/27 05:07:19;;;;;;;0.50;0.50;;;;;;;10.37;76.19;100340.91;5072886;28;20225;-81
2021/05/27 05:09:46;;;;;;;0.70;0.60;;;;;;;10.43;76.71;100340.47;5065193;28;20208;-81
2021/05/27 05:12:12;;;;;;;0.70;0.70;;;;;;;10.46;76.91;100344.75;5064093;28;20204;-82
2021/05/27 05:14:38;;;;;;;0.60;0.60;;;;;;;10.50;76.59;100338.28;5071498;28;20604;-80
2021/05/27 05:17:05;;;;;;;0.60;0.60;;;;;;;10.54;77.02;100354.91;5073068;28;20227;-81
2021/05/27 05:19:31;;;;;;;0.73;0.60;;;;;;;10.54;76.92;100342.44;5067342;28;20716;-82
2021/05/27 05:21:58;;;;;;;0.50;0.50;;;;;;;10.58;76.88;100359.03;5072568;28;20205;-82
2021/05/27 05:24:24;;;;;;;1.10;0.80;;;;;;;10.59;76.92;100347.44;5071334;28;20197;-80
2021/05/27 05:26:50;;;;;;;1.87;0.47;;;;;;;10.62;76.53;100349.88;5073374;28;20304;-82
2021/05/27 05:29:16;;;;;;;1.17;0.87;;;;;;;10.64;77.15;100353.31;5082034;28;20225;-82
2021/05/27 05:31:42;;;;;;;1.30;0.70;;;;;;;10.72;76.98;100343.00;5070526;28;21264;-80
2021/05/27 05:34:09;;;;;;;1.03;0.87;;;;;;;10.81;77.20;100344.16;5072475;28;20219;-79
2021/05/27 05:36:36;;;;;;;1.43;0.83;;;;;;;10.92;77.11;100345.13;5065306;28;20609;-80
2021/05/27 05:39:03;;;;;;;0.90;0.90;;;;;;;11.07;77.44;100345.88;5076718;28;20226;-81
2021/05/27 05:41:29;;;;;;;2.37;0.70;;;;;;;11.22;76.85;100355.44;5072453;28;20205;-79
2021/05/27 05:43:55;;;;;;;0.83;0.70;;;;;;;11.30;76.79;100349.56;5067597;28;20204;-80
2021/05/27 05:46:21;;;;;;;1.03;0.93;;;;;;;11.35;76.13;100350.09;5069674;28;20278;-81
2021/05/27 05:48:47;;;;;;;1.90;0.70;;;;;;;11.36;75.81;100351.78;5056439;28;20213;-81
2021/05/27 05:51:14;;;;;;;1.03;0.70;;;;;;;11.36;75.63;100343.78;5057920;28;20212;-79
2021/05/27 05:53:40;;;;;;;0.87;0.80;;;;;;;11.37;75.11;100358.84;5059388;28;20573;-79
2021/05/27 05:56:06;;;;;;;1.67;1.10;;;;;;;11.39;75.29;100360.44;5067352;28;20220;-80
2021/05/27 05:58:32;;;;;;;0.90;0.90;;;;;;;11.44;74.90;100360.13;5069335;28;20259;-79
2021/05/27 06:00:58;;;;;;;0.90;0.80;;;;;;;11.47;74.68;100355.38;5069483;28;20215;-80
2021/05/27 06:03:24;;;;;;;0.70;0.70;;;;;;;11.49;74.37;100352.59;5072862;28;20581;-80
2021/05/27 06:05:50;;;;;;;0.70;0.70;;;;;;;11.51;74.10;100353.34;5069356;28;20688;-80
2021/05/27 06:08:17;;;;;;;1.00;0.90;;;;;;;11.52;73.90;100359.53;5069860;28;20644;-81
2021/05/27 06:10:44;;;;;;;2.03;0.90;;;;;;;11.53;73.52;100370.09;5078465;28;20695;-81
2021/05/27 06:13:10;;;;;;;1.53;0.90;;;;;;;11.52;73.42;100365.72;5076268;28;20241;-81
2021/05/27 06:15:37;;;;;;;1.10;1.00;;;;;;;11.53;73.43;100363.91;5078861;28;20311;-81
2021/05/27 06:18:03;;;;;;;2.37;1.20;;;;;;;11.53;73.09;100364.78;5075009;28;20201;-81
2021/05/27 06:20:30;;;;;;;2.97;0.90;;;;;;;11.54;73.09;100369.16;5074799;28;20201;-80
2021/05/27 06:23:01;;;;;;;0.87;0.80;;;;;;;11.55;72.77;100370.00;5079011;28;20197;-82
2021/05/27 06:25:28;;;;;;;1.93;1.00;;;;;;;11.53;72.81;100372.78;5075748;28;20201;-84
2021/05/27 06:27:55;;;;;;;1.87;1.00;;;;;;;11.56;72.49;100379.72;5075017;22;20245;-80
2021/05/27 06:30:23;;;;;;;1.00;0.90;;;;;;;11.58;72.84;100380.44;5060624;28;20202;-80
2021/05/27 06:32:49;;;;;;;1.37;1.07;;;;;;;11.61;72.97;100370.41;5071271;28;20282;-79
2021/05/27 06:35:16;;;;;;;1.70;1.00;;;;;;;11.62;72.69;100388.13;5060369;28;20363;-81
2021/05/27 06:37:43;;;;;;;1.53;1.10;;;;;;;11.64;72.96;100391.53;5055890;28;20313;-81
2021/05/27 06:40:11;;;;;;;0.87;0.83;;;;;;;11.64;73.09;100393.38;5052654;28;20210;-81
2021/05/27 06:42:38;;;;;;;1.77;1.20;;;;;;;11.61;73.29;100388.25;5049147;28;20205;-78
2021/05/27 06:45:06;;;;;;;1.43;1.20;;;;;;;11.58;73.67;100396.47;5055046;28;20202;-80
2021/05/27 06:47:32;;;;;;;1.63;1.00;;;;;;;11.54;74.00;100394.97;5050774;28;20228;-79
2021/05/27 06:49:58;;;;;;;2.30;1.20;;;;;;;11.52;74.46;100392.41;5059079;28;20198;-79
2021/05/27 06:52:25;;;;;;;1.23;0.93;;;;;;;11.49;74.35;100398.81;5058213;28;20205;-78
2021/05/27 06:54:52;;;;;;;0.87;0.80;;;;;;;11.47;74.85;100399.88;5051600;28;20229;-80
2021/05/27 06:57:18;;;;;;;0.93;0.90;;;;;;;11.43;75.11;100403.75;5059187;28;20254;-81
2021/05/27 06:59:45;;;;;;;1.10;1.00;;;;;;;11.40;75.52;100403.94;5055347;28;20200;-80
2021/05/27 07:02:11;;;;;;;1.53;0.90;;;;;;;11.38;75.64;100411.19;5051900;28;20207;-79
2021/05/27 07:04:37;;;;;;;0.60;0.60;;;;;;;11.36;76.09;100411.31;5060295;28;20213;-78
2021/05/27 07:07:03;;;;;;;0.80;0.80;;;;;;;11.35;76.16;100406.06;5057518;28;20227;-79
2021/05/27 07:09:29;;;;;;;2.87;2.47;;;;;;;11.36;76.33;100405.97;5058698;28;20647;-79
2021/05/27 07:11:55;;;;;;;4.77;3.33;;;;;;;11.38;76.59;100411.19;5055205;28;20204;-81
2021/05/27 07:14:22;;;;;;;5.87;4.67;;;;;;;11.38;76.61;100416.53;5057869;28;20331;-80
2021/05/27 07:16:49;;;;;;;2.87;2.57;;;;;;;11.37;76.75;100420.16;5055261;28;20241;-79
2021/05/27 07:19:15;;;;;;;1.13;1.10;;;;;;;11.34;76.84;100426.56;5055576;28;20202;-79
2021/05/27 07:21:41;;;;;;;2.17;1.83;;;;;;;11.34;77.15;100431.88;5056553;28;20293;-79
2021/05/27 07:24:07;;;;;;;2.40;2.10;;;;;;;11.33;77.20;100426.66;5058555;28;20205;-79
2021/05/27 07:26:34;;;;;;;3.20;1.57;;;;;;;11.30;77.17;100416.19;5055974;28;20236;-80
2021/05/27 07:29:00;;;;;;;2.13;1.10;;;;;;;11.30;77.33;100430.38;5058974;28;20291;-81
2021/05/27 07:31:27;;;;;;;1.60;1.17;;;;;;;11.30;77.68;100430.38;5059058;28;20202;-80
2021/05/27 07:33:53;;;;;;;0.90;0.90;;;;;;;11.32;77.51;100420.47;5055623;28;20206;-80
2021/05/27 07:36:19;;;;;;;1.03;0.93;;;;;;;11.35;77.88;100428.25;5057527;28;20221;-79
2021/05/27 07:38:46;;;;;;;0.90;0.90;;;;;;;11.37;78.11;100434.34;5061320;28;20202;-77
2021/05/27 07:41:12;;;;;;;2.00;1.10;;;;;;;11.45;77.92;100439.16;5056600;28;20256;-79
2021/05/27 07:43:38;;;;;;;0.90;0.90;;;;;;;11.50;78.08;100434.31;5052242;28;20205;-80
2021/05/27 07:46:04;;;;;;;1.73;1.50;;;;;;;11.56;78.03;100435.72;5051904;28;20244;-82
2021/05/27 07:48:30;;;;;;;3.20;2.63;;;;;;;11.60;77.76;100435.41;5051606;28;20262;-80
2021/05/27 07:50:57;;;;;;;1.43;0.90;;;;;;;11.63;77.71;100431.66;5058795;28;20194;-80
2021/05/27 07:53:23;;;;;;;1.20;0.80;;;;;;;11.63;77.46;100453.00;5057620;28;20228;-79
2021/05/27 07:55:50;;;;;;;0.87;0.70;;;;;;;11.58;77.26;100439.97;5047228;28;20225;-80
2021/05/27 07:58:16;;;;;;;1.03;0.90;;;;;;;11.56;77.33;100446.38;5054319;28;20220;-80
2021/05/27 08:00:42;;;;;;;1.40;1.27;;;;;;;11.53;77.16;100462.59;5058064;28;20202;-80
2021/05/27 08:03:08;;;;;;;2.30;2.00;;;;;;;11.47;77.20;100454.06;5052847;28;20205;-80
2021/05/27 08:05:35;;;;;;;2.50;1.97;;;;;;;11.42;76.99;100453.53;5053299;28;20210;-81
2021/05/27 08:08:02;;;;;;;1.50;1.40;;;;;;;11.36;76.92;100461.97;5053152;28;20232;-80
2021/05/27 08:10:28;;;;;;;2.43;1.10;;;;;;;11.33;77.04;100458.66;5051443;28;20207;-80
2021/05/27 08:12:54;;;;;;;2.43;1.00;;;;;;;11.30;77.08;100461.53;5053416;28;20210;-80
2021/05/27 08:15:20;;;;;;;1.67;1.50;;;;;;;11.30;77.50;100461.53;5048019;28;20221;-79
2021/05/27 08:17:46;;;;;;;0.90;0.90;;;;;;;11.31;77.48;100463.22;5051967;28;20228;-79
2021/05/27 08:20:13;;;;;;;1.17;0.80;;;;;;;11.28;77.37;100469.66;5048656;28;20213;-82
2021/05/27 08:22:39;;;;;;;0.77;0.77;;;;;;;11.28;77.32;100476.81;5050695;28;20294;-81
2021/05/27 08:25:07;;;;;;;0.87;0.70;;;;;;;11.25;76.99;100479.69;5051255;28;20202;-79
2021/05/27 08:27:34;;;;;;;0.70;0.70;;;;;;;11.21;76.98;100465.69;5050691;28;20745;-80
2021/05/27 08:30:00;;;;;;;0.80;0.80;;;;;;;11.21;77.19;100471.03;5053140;28;20851;-81
2021/05/27 08:32:27;;;;;;;0.80;0.80;;;;;;;11.25;77.27;100469.00;5050764;28;20202;-81
2021/05/27 08:34:53;;;;;;;0.83;0.77;;;;;;;11.25;77.28;100474.34;5052679;28;20706;-81
2021/05/27 08:37:19;;;;;;;1.13;0.90;;;;;;;11.27;76.98;100467.09;5049089;28;20783;-80
2021/05/27 08:39:45;;;;;;;0.73;0.70;;;;;;;11.28;77.23;100471.47;5049367;28;20201;-79
2021/05/27 08:42:12;;;;;;;3.67;2.90;;;;;;;11.31;77.26;100477.41;5051323;28;20232;-80
2021/05/27 08:44:41;;;;;;;3.30;2.70;;;;;;;11.33;76.96;100472.84;5045968;28;20255;-79
2021/05/27 08:47:08;;;;;;;1.90;1.80;;;;;;;11.36;77.08;100474.44;5048539;28;20691;-80
2021/05/27 08:49:36;;;;;;;2.17;0.80;;;;;;;11.37;77.09;100471.69;5048581;28;20206;-79
2021/05/27 08:52:02;;;;;;;0.50;0.50;;;;;;;11.38;76.90;100476.03;5049812;28;20206;-81
2021/05/27 08:54:30;;;;;;;0.47;0.40;;;;;;;11.40;76.92;100489.28;5049130;28;20202;-79
2021/05/27 08:56:56;;;;;;;1.20;0.70;;;;;;;11.40;76.72;100490.13;5045479;28;20229;-80
2021/05/27 08:59:22;;;;;;;1.10;0.50;;;;;;;11.41;76.47;100490.97;5050054;28;20235;-79
2021/05/27 09:02:06;;;;;;;1.57;0.80;;;;;;;11.43;76.39;100494.41;5048871;28;20206;-79
2021/05/27 09:04:33;;;;;;;0.60;0.60;;;;;;;11.46;76.61;100489.69;5048098;28;20277;-79
2021/05/27 09:06:59;;;;;;;0.80;0.57;;;;;;;11.46;76.30;100488.84;5050069;28;20317;-79
2021/05/27 09:09:45;;;;;;;0.50;0.40;;;;;;;11.46;76.48;100480.88;5047085;28;20231;-80
2021/05/27 09:12:27;;;;;;;1.00;0.60;;;;;;;11.47;76.50;100490.53;5043756;28;20714;-79
2021/05/27 09:14:54;;;;;;;0.57;0.50;;;;;;;11.51;76.64;100508.03;5049894;28;20262;-79
2021/05/27 09:17:20;;;;;;;0.80;0.50;;;;;;;11.54;76.63;100512.31;5049316;28;20223;-79
2021/05/27 09:20:12;;;;;;;1.00;0.60;;;;;;;11.55;76.45;100501.53;5047550;28;20212;-79
2021/05/27 09:22:39;;;;;;;0.50;0.50;;;;;;;11.55;76.46;100504.22;5047341;28;20251;-79
2021/05/27 09:25:06;;;;;;;1.00;0.50;;;;;;;11.55;76.28;100503.34;5050054;28;20217;-81
2021/05/27 09:27:46;;;;;;;0.97;0.60;;;;;;;11.57;76.18;100509.44;5050165;28;20291;-80
2021/05/27 09:30:14;;;;;;;1.43;1.13;;;;;;;11.53;75.98;100522.13;5050185;28;20660;-81
2021/05/27 09:32:45;;;;;;;1.47;1.10;;;;;;;11.52;76.10;100531.09;5045867;28;20212;-81
2021/05/27 09:35:13;;;;;;;0.90;0.70;;;;;;;11.51;75.95;100524.03;5050956;28;20313;-80
2021/05/27 09:37:46;;;;;;;1.23;0.63;;;;;;;11.53;76.16;100527.47;5051628;28;20337;-82
2021/05/27 09:40:28;;;;;;;1.23;0.87;;;;;;;11.56;75.97;100531.72;5053054;28;20198;-82
2021/05/27 09:42:54;;;;;;;0.57;0.57;;;;;;;11.58;76.04;100536.00;5052735;28;20203;-81
2021/05/27 09:45:22;;;;;;;0.60;0.60;;;;;;;11.59;75.92;100535.06;5051455;28;20228;-82
2021/05/27 09:47:48;;;;;;;0.63;0.60;;;;;;;11.60;75.78;100538.56;5053223;28;20234;-84
2021/05/27 09:50:15;;;;;;;0.67;0.67;;;;;;;11.59;75.98;100553.72;5055082;28;20206;-81
2021/05/27 09:52:42;;;;;;;0.80;0.80;;;;;;;11.60;75.77;100542.09;5051181;28;20215;-84
2021/05/27 09:55:11;;;;;;;1.23;0.70;;;;;;;11.58;75.91;100548.50;5054528;28;20257;-82
2021/05/27 09:57:37;;;;;;;0.83;0.70;;;;;;;11.56;75.49;100553.06;5055810;28;20269;-81
2021/05/27 10:00:06;;;;;;;1.83;0.80;;;;;;;11.55;76.03;100554.03;5055608;28;20252;-81
2021/05/27 10:02:35;;;;;;;2.17;0.77;;;;;;;11.53;75.72;100559.47;5051184;28;20226;-80
2021/05/27 10:05:08;;;;;;;1.73;0.80;;;;;;;11.53;76.13;100555.94;5052066;28;20206;-81
2021/05/27 10:07:36;;;;;;;1.40;0.93;;;;;;;11.50;75.91;100557.00;5050475;28;20226;-81
2021/05/27 10:10:04;;;;;;;0.80;0.80;;;;;;;11.51;76.22;100563.19;5047881;28;20219;-81
2021/05/27 10:12:35;;;;;;;1.37;1.00;;;;;;;11.51;76.59;100565.84;5052150;28;20233;-81
2021/05/27 10:15:02;;;;;;;1.30;0.90;;;;;;;11.52;76.83;100562.22;5048434;28;20204;-83
2021/05/27 10:17:28;;;;;;;1.57;0.90;;;;;;;11.54;76.75;100561.19;5049575;28;20289;-83
2021/05/27 10:19:57;;;;;;;1.30;1.10;;;;;;;11.53;76.66;100564.81;5052758;28;20626;-83
2021/05/27 10:22:23;;;;;;;1.80;1.47;;;;;;;11.53;76.81;100559.47;5046821;28;20213;-82
2021/05/27 10:24:50;;;;;;;1.30;1.20;;;;;;;11.55;77.19;100562.03;5053215;28;20586;-80
2021/05/27 10:27:16;;;;;;;1.13;1.03;;;;;;;11.57;76.96;100560.13;5053989;28;20612;-81
2021/05/27 10:29:43;;;;;;;1.30;1.20;;;;;;;11.59;77.08;100575.06;5054671;28;20239;-81
2021/05/27 10:32:10;;;;;;;1.20;1.07;;;;;;;11.65;77.30;100569.28;5053842;28;20572;-80
2021/05/27 10:34:47;;;;;;;0.97;0.87;;;;;;;11.75;77.54;100572.19;5054977;28;20296;-81
2021/05/27 10:37:39;;;;;;;1.53;0.93;;;;;;;11.82;77.36;100562.84;5055749;28;20234;-80
2021/05/27 10:40:37;;;;;;;1.03;0.93;;;;;;;11.86;77.28;100568.78;5050529;28;20209;-82
2021/05/27 10:43:10;;;;;;;0.87;0.80;;;;;;;11.88;77.25;100564.19;5056231;28;20201;-82
2021/05/27 10:46:09;;;;;;;1.13;0.80;;;;;;;11.91;77.14;100566.66;5055018;28;20654;-80
2021/05/27 10:48:40;;;;;;;0.90;0.80;;;;;;;11.91;76.98;100570.19;5057440;28;20205;-79
2021/05/27 10:51:12;;;;;;;0.90;0.70;;;;;;;11.92;76.63;100576.38;5054751;28;20288;-79
2021/05/27 10:53:58;;;;;;;0.77;0.77;;;;;;;11.93;76.73;100578.09;5053001;28;20606;-78
2021/05/27 10:56:43;;;;;;;1.27;0.80;;;;;;;11.94;76.54;100575.31;5052370;28;20288;-79
2021/05/27 10:59:12;;;;;;;1.10;1.00;;;;;;;11.98;76.66;100586.63;5053600;28;20713;-79
2021/05/27 11:02:00;;;;;;;1.37;0.80;;;;;;;12.00;76.43;100582.03;5048320;28;20215;-77
2021/05/27 11:04:33;;;;;;;0.77;0.70;;;;;;;12.05;76.55;100586.06;5050202;28;20205;-78
2021/05/27 11:07:21;;;;;;;0.70;0.70;;;;;;;12.06;76.47;100581.59;5047655;28;20248;-77
2021/05/27 11:09:49;;;;;;;0.80;0.60;;;;;;;12.10;76.35;100589.28;5046469;28;20203;-77
2021/05/27 11:12:20;;;;;;;0.70;0.70;;;;;;;12.16;76.21;100590.69;5052823;28;20681;-77
2021/05/27 11:15:02;;;;;;;0.60;0.60;;;;;;;12.21;76.22;100583.16;5054834;28;20574;-78
2021/05/27 11:17:28;;;;;;;1.80;0.80;;;;;;;12.32;76.03;100579.75;5048556;28;20587;-77
2021/05/27 11:19:57;;;;;;;0.87;0.60;;;;;;;12.43;75.92;100587.84;5051883;28;20201;-77
2021/05/27 11:22:53;;;;;;;0.80;0.73;;;;;;;12.59;75.77;100590.25;5050248;28;20206;-77
2021/05/27 11:25:35;;;;;;;0.40;0.40;;;;;;;12.69;74.88;100581.47;5050604;28;20198;-77
2021/05/27 11:28:24;;;;;;;0.30;0.30;;;;;;;12.80;74.16;100586.88;5050225;28;20359;-77
2021/05/27 11:30:54;;;;;;;1.10;0.50;;;;;;;12.85;73.72;100594.56;5051548;28;20288;-78
2021/05/27 11:33:38;;;;;;;0.70;0.50;;;;;;;12.94;73.69;100598.34;5049967;28;20241;-78
2021/05/27 11:36:18;;;;;;;0.63;0.53;;;;;;;13.04;72.99;100592.22;5048729;28;20225;-78
2021/05/27 11:38:44;;;;;;;0.83;0.60;;;;;;;13.17;73.23;100595.72;5049502;28;20194;-77
2021/05/27 11:41:16;;;;;;;0.90;0.60;;;;;;;13.34;73.39;100605.16;5054872;28;20205;-77
2021/05/27 11:43:44;;;;;;;1.03;0.60;;;;;;;13.50;72.96;100594.97;5048996;28;20317;-78
2021/05/27 11:46:14;;;;;;;0.60;0.50;;;;;;;13.61;72.45;100594.19;5048490;28;20228;-77